createdAt,value
2019-03-16T00:02:24.905Z,3.70
2019-03-16T00:04:51.231Z,3.20
2019-03-16T00:07:17.340Z,3.43
2019-03-16T00:09:43.583Z,3.73
2019-03-16T00:12:09.671Z,3.10
2019-03-16T00:14:35.792Z,3.67
2019-03-16T00:17:02.054Z,3.20
2019-03-16T00:19:28.411Z,3.67
2019-03-16T00:21:54.743Z,3.77
2019-03-16T00:24:20.854Z,3.30
2019-03-16T00:26:47.202Z,3.10
2019-03-16T00:29:13.604Z,3.03
2019-03-16T00:31:39.867Z,3.37
2019-03-16T00:34:06.176Z,3.10
2019-03-16T00:36:32.327Z,3.27
2019-03-16T00:38:58.567Z,2.87
2019-03-16T00:41:24.899Z,3.90
2019-03-16T00:43:51.307Z,3.00
2019-03-16T00:46:17.600Z,3.77
2019-03-16T00:48:44.009Z,3.83
2019-03-16T00:51:10.150Z,3.40
2019-03-16T00:53:36.645Z,2.90
2019-03-16T00:56:03.203Z,3.40
2019-03-16T00:58:29.419Z,3.57
2019-03-16T01:00:55.531Z,3.40
2019-03-16T01:03:21.777Z,3.00
2019-03-16T01:05:47.955Z,3.47
2019-03-16T01:08:14.169Z,3.33
2019-03-16T01:10:40.348Z,3.07
2019-03-16T01:13:06.713Z,2.97
2019-03-16T01:15:33.024Z,2.80
2019-03-16T01:17:59.208Z,3.13
2019-03-16T01:20:25.608Z,3.10
2019-03-16T01:22:51.841Z,3.20
2019-03-16T01:25:18.055Z,3.27
2019-03-16T01:27:44.422Z,3.10
2019-03-16T01:30:15.127Z,3.50
2019-03-16T01:32:41.632Z,3.20
2019-03-16T01:35:08.057Z,3.40
2019-03-16T01:37:34.163Z,3.80
2019-03-16T01:40:00.385Z,3.73
2019-03-16T01:42:26.643Z,2.97
2019-03-16T01:44:52.875Z,3.30
2019-03-16T01:47:19.029Z,3.10
2019-03-16T01:49:45.199Z,3.03
2019-03-16T01:52:11.293Z,2.73
2019-03-16T01:54:37.534Z,4.00
2019-03-16T01:57:03.663Z,2.70
2019-03-16T01:59:29.817Z,3.87
2019-03-16T02:01:55.914Z,3.00
2019-03-16T02:04:22.253Z,3.10
2019-03-16T02:06:48.413Z,2.80
2019-03-16T02:09:14.659Z,3.27
2019-03-16T02:11:40.918Z,3.33
2019-03-16T02:14:07.221Z,3.03
2019-03-16T02:16:33.638Z,3.13
2019-03-16T02:19:00.842Z,3.07
2019-03-16T02:21:27.037Z,3.37
2019-03-16T02:23:53.142Z,3.30
2019-03-16T02:26:19.319Z,3.27
2019-03-16T02:28:45.440Z,2.67
2019-03-16T02:31:11.544Z,3.33
2019-03-16T02:33:37.695Z,3.30
2019-03-16T02:36:03.910Z,3.53
2019-03-16T02:38:30.215Z,2.73
2019-03-16T02:40:56.486Z,3.20
2019-03-16T02:43:22.603Z,3.33
2019-03-16T02:45:48.861Z,3.10
2019-03-16T02:48:14.958Z,3.60
2019-03-16T02:50:41.087Z,3.27
2019-03-16T02:53:07.217Z,3.47
2019-03-16T02:55:33.417Z,3.07
2019-03-16T02:57:59.590Z,3.77
2019-03-16T03:00:25.768Z,3.23
2019-03-16T03:02:51.952Z,3.50
2019-03-16T03:05:18.048Z,3.50
2019-03-16T03:07:44.168Z,3.23
2019-03-16T03:10:14.266Z,3.13
2019-03-16T03:12:40.591Z,3.90
2019-03-16T03:15:07.806Z,3.50
2019-03-16T03:17:34.123Z,4.03
2019-03-16T03:20:00.482Z,3.67
2019-03-16T03:22:26.600Z,4.20
2019-03-16T03:24:52.694Z,4.17
2019-03-16T03:27:18.979Z,3.53
2019-03-16T03:29:45.090Z,3.33
2019-03-16T03:32:11.300Z,3.20
2019-03-16T03:34:38.527Z,4.10
2019-03-16T03:37:04.647Z,3.80
2019-03-16T03:39:30.766Z,3.73
2019-03-16T03:41:57.001Z,3.90
2019-03-16T03:44:23.097Z,3.40
2019-03-16T03:46:49.290Z,4.13
2019-03-16T03:49:15.399Z,4.67
2019-03-16T03:51:41.712Z,4.37
2019-03-16T03:54:07.904Z,3.90
2019-03-16T03:56:34.048Z,4.43
2019-03-16T03:59:00.235Z,4.00
2019-03-16T04:01:26.460Z,4.13
2019-03-16T04:03:52.773Z,3.93
2019-03-16T04:06:18.988Z,4.33
2019-03-16T04:08:45.215Z,4.00
2019-03-16T04:11:11.405Z,3.93
2019-03-16T04:13:37.664Z,3.40
2019-03-16T04:16:03.944Z,3.70
2019-03-16T04:18:30.278Z,4.07
2019-03-16T04:20:56.412Z,4.00
2019-03-16T04:23:22.716Z,3.80
2019-03-16T04:25:48.822Z,3.57
2019-03-16T04:28:14.929Z,3.67
2019-03-16T04:30:41.167Z,3.20
2019-03-16T04:33:07.381Z,3.03
2019-03-16T04:35:36.092Z,3.67
2019-03-16T04:38:02.309Z,3.83
2019-03-16T04:40:28.424Z,3.07
2019-03-16T04:42:54.548Z,3.20
2019-03-16T04:45:20.772Z,2.73
2019-03-16T04:47:47.143Z,2.87
2019-03-16T04:50:13.631Z,2.57
2019-03-16T04:52:39.836Z,2.70
2019-03-16T04:55:08.833Z,2.77
2019-03-16T04:57:35.002Z,2.73
2019-03-16T05:00:02.199Z,2.30
2019-03-16T05:02:28.452Z,3.33
2019-03-16T05:04:54.585Z,3.27
2019-03-16T05:07:20.815Z,3.17
2019-03-16T05:09:46.973Z,2.90
2019-03-16T05:12:13.184Z,2.90
2019-03-16T05:14:39.291Z,3.00
2019-03-16T05:17:05.481Z,3.47
2019-03-16T05:19:31.602Z,3.23
2019-03-16T05:21:58.817Z,3.47
2019-03-16T05:24:25.032Z,3.20
2019-03-16T05:26:51.207Z,3.40
2019-03-16T05:29:17.981Z,3.37
2019-03-16T05:31:44.325Z,3.40
2019-03-16T05:34:10.563Z,3.63
2019-03-16T05:36:36.689Z,4.00
2019-03-16T05:39:05.136Z,3.27
2019-03-16T05:41:31.215Z,3.50
2019-03-16T05:43:57.443Z,3.57
2019-03-16T05:46:23.648Z,3.80
2019-03-16T05:48:49.833Z,4.00
2019-03-16T05:51:16.124Z,3.73
2019-03-16T05:53:42.273Z,4.40
2019-03-16T05:56:08.454Z,3.90
2019-03-16T05:58:34.668Z,3.70
2019-03-16T06:01:01.574Z,4.67
2019-03-16T06:03:27.921Z,3.93
2019-03-16T06:05:54.022Z,4.73
2019-03-16T06:08:20.273Z,5.00
2019-03-16T06:10:46.495Z,5.60
2019-03-16T06:13:12.835Z,6.07
2019-03-16T06:15:38.999Z,5.50
2019-03-16T06:18:06.467Z,5.87
2019-03-16T06:20:32.597Z,6.17
2019-03-16T06:22:58.732Z,6.13
2019-03-16T06:25:24.916Z,5.07
2019-03-16T06:27:51.035Z,5.10
2019-03-16T06:30:20.582Z,6.10
2019-03-16T06:32:45.284Z,5.60
2019-03-16T06:35:24.057Z,5.73
2019-03-16T06:37:39.763Z,6.20
2019-03-16T06:40:07.698Z,6.10
2019-03-16T06:42:33.927Z,6.63
2019-03-16T06:45:00.054Z,6.03
2019-03-16T06:47:26.186Z,6.07
2019-03-16T06:49:52.513Z,6.67
2019-03-16T06:52:18.689Z,6.07
2019-03-16T06:54:44.846Z,6.90
2019-03-16T06:57:11.140Z,7.30
2019-03-16T06:59:37.236Z,6.53
2019-03-16T07:02:03.658Z,6.70
2019-03-16T07:04:29.842Z,6.47
2019-03-16T07:06:55.970Z,6.57
2019-03-16T07:09:22.336Z,4.93
2019-03-16T07:11:48.579Z,28.30
2019-03-16T07:14:14.926Z,7.87
2019-03-16T07:16:41.261Z,7.30
2019-03-16T07:19:07.351Z,5.73
2019-03-16T07:21:33.636Z,4.23
2019-03-16T07:23:59.837Z,5.13
2019-03-16T07:26:26.036Z,4.87
2019-03-16T07:28:52.253Z,4.77
2019-03-16T07:31:19.599Z,5.00
2019-03-16T07:33:45.807Z,5.07
2019-03-16T07:36:12.139Z,6.10
2019-03-16T07:38:38.374Z,7.60
2019-03-16T07:41:04.841Z,5.93
2019-03-16T07:43:31.225Z,6.20
2019-03-16T07:45:57.560Z,6.73
2019-03-16T07:48:23.718Z,6.40
2019-03-16T07:50:49.976Z,6.60
2019-03-16T07:53:16.300Z,6.20
2019-03-16T07:55:42.494Z,7.37
2019-03-16T07:58:08.624Z,6.87
2019-03-16T08:00:34.906Z,6.80
2019-03-16T08:03:01.219Z,8.00
2019-03-16T08:05:28.515Z,7.93
2019-03-16T08:07:55.020Z,7.60
2019-03-16T08:10:21.241Z,8.83
2019-03-16T08:12:47.567Z,11.10
2019-03-16T08:15:13.865Z,10.97
2019-03-16T08:17:40.034Z,11.60
2019-03-16T08:20:07.784Z,12.93
2019-03-16T08:22:33.913Z,13.83
2019-03-16T08:25:00.150Z,15.63
2019-03-16T08:27:26.258Z,17.53
2019-03-16T08:29:52.400Z,18.20
2019-03-16T08:32:18.742Z,19.27
2019-03-16T08:34:45.030Z,21.07
2019-03-16T08:37:11.374Z,24.07
2019-03-16T08:39:39.054Z,21.60
2019-03-16T08:42:05.159Z,22.47
2019-03-16T08:44:31.434Z,21.80
2019-03-16T08:46:57.674Z,23.27
2019-03-16T08:49:23.775Z,21.17
2019-03-16T08:51:50.229Z,20.70
2019-03-16T08:54:16.507Z,23.13
2019-03-16T08:56:42.599Z,21.30
2019-03-16T08:59:08.780Z,22.03
2019-03-16T09:01:34.941Z,22.10
2019-03-16T09:04:01.253Z,19.37
2019-03-16T09:06:27.578Z,20.33
2019-03-16T09:08:54.005Z,20.40
2019-03-16T09:11:20.248Z,21.53
2019-03-16T09:13:46.368Z,20.17
2019-03-16T09:16:12.686Z,20.77
2019-03-16T09:18:38.920Z,18.47
2019-03-16T09:21:05.106Z,17.50
2019-03-16T09:23:31.388Z,16.47
2019-03-16T09:25:57.595Z,15.73
2019-03-16T09:28:24.955Z,15.43
2019-03-16T09:30:51.299Z,15.10
2019-03-16T09:33:17.700Z,15.97
2019-03-16T09:35:44.032Z,14.10
2019-03-16T09:38:10.171Z,15.50
2019-03-16T09:40:36.449Z,14.73
2019-03-16T09:43:02.649Z,14.97
2019-03-16T09:45:28.923Z,13.87
2019-03-16T09:47:55.085Z,13.97
2019-03-16T09:50:21.320Z,13.20
2019-03-16T09:52:47.524Z,14.87
2019-03-16T09:55:13.758Z,14.53
2019-03-16T09:57:40.031Z,14.80
2019-03-16T10:00:10.590Z,15.63
2019-03-16T10:02:36.905Z,14.43
2019-03-16T10:05:04.279Z,12.57
2019-03-16T10:07:30.605Z,14.17
2019-03-16T10:09:56.784Z,13.33
2019-03-16T10:12:23.228Z,12.63
2019-03-16T10:14:49.613Z,11.73
2019-03-16T10:17:15.835Z,12.10
2019-03-16T10:19:42.975Z,11.50
2019-03-16T10:22:09.413Z,10.17
2019-03-16T10:24:35.749Z,10.37
2019-03-16T10:27:02.058Z,9.27
2019-03-16T10:29:28.406Z,9.90
2019-03-16T10:31:54.702Z,11.43
2019-03-16T10:34:21.021Z,10.77
2019-03-16T10:36:47.409Z,9.70
2019-03-16T10:39:13.623Z,10.30
2019-03-16T10:41:39.881Z,11.00
2019-03-16T10:44:06.126Z,9.37
2019-03-16T10:46:32.265Z,10.30
2019-03-16T10:48:58.499Z,10.33
2019-03-16T10:51:27.546Z,10.43
2019-03-16T10:53:53.054Z,10.57
2019-03-16T10:56:19.261Z,9.03
2019-03-16T10:58:56.072Z,10.30
2019-03-16T11:01:14.030Z,10.17
2019-03-16T11:03:40.180Z,9.30
2019-03-16T11:06:06.477Z,9.70
2019-03-16T11:08:32.893Z,8.87
2019-03-16T11:10:59.020Z,8.57
2019-03-16T11:13:25.348Z,7.50
2019-03-16T11:15:51.625Z,8.40
2019-03-16T11:18:17.837Z,8.00
2019-03-16T11:20:44.268Z,8.63
2019-03-16T11:23:10.736Z,8.20
2019-03-16T11:25:36.994Z,8.20
2019-03-16T11:28:03.363Z,7.37
2019-03-16T11:30:29.608Z,8.30
2019-03-16T11:32:55.930Z,8.10
2019-03-16T11:35:22.197Z,6.90
2019-03-16T11:37:49.591Z,8.30
2019-03-16T11:40:17.132Z,8.10
2019-03-16T11:42:45.258Z,7.23
2019-03-16T11:45:11.647Z,8.77
2019-03-16T11:47:38.038Z,9.17
2019-03-16T11:50:07.095Z,8.30
2019-03-16T11:52:33.350Z,8.00
2019-03-16T11:54:59.567Z,8.27
2019-03-16T11:57:26.842Z,8.67
2019-03-16T11:59:53.090Z,7.83
2019-03-16T12:02:19.496Z,7.40
2019-03-16T12:04:45.720Z,7.50
2019-03-16T12:07:11.943Z,8.10
2019-03-16T12:09:38.053Z,8.33
2019-03-16T12:12:04.432Z,8.50
2019-03-16T12:14:30.592Z,6.60
2019-03-16T12:16:56.862Z,7.00
2019-03-16T12:19:23.213Z,5.63
2019-03-16T12:21:49.585Z,6.43
2019-03-16T12:24:15.689Z,6.73
2019-03-16T12:26:41.858Z,6.70
2019-03-16T12:29:08.128Z,6.43
2019-03-16T12:31:34.237Z,6.20
2019-03-16T12:34:00.533Z,6.13
2019-03-16T12:36:26.851Z,5.80
2019-03-16T12:38:53.001Z,6.27
2019-03-16T12:41:19.267Z,6.10
2019-03-16T12:43:45.537Z,6.10
2019-03-16T12:46:12.017Z,5.43
2019-03-16T12:48:38.385Z,7.37
2019-03-16T12:51:04.600Z,5.40
2019-03-16T12:53:30.732Z,5.80
2019-03-16T12:55:56.849Z,5.20
2019-03-16T12:58:22.990Z,5.30
2019-03-16T13:00:49.375Z,5.00
2019-03-16T13:03:15.739Z,5.57
2019-03-16T13:05:41.991Z,5.33
2019-03-16T13:08:08.218Z,5.10
2019-03-16T13:10:34.540Z,5.10
2019-03-16T13:13:00.797Z,4.70
2019-03-16T13:15:27.046Z,5.30
2019-03-16T13:17:53.402Z,5.57
2019-03-16T13:20:19.701Z,4.87
2019-03-16T13:22:46.980Z,5.00
2019-03-16T13:25:13.265Z,4.43
2019-03-16T13:27:39.518Z,3.70
2019-03-16T13:30:09.141Z,4.23
2019-03-16T13:32:35.282Z,3.97
2019-03-16T13:35:01.829Z,5.33
2019-03-16T13:37:28.101Z,5.80
2019-03-16T13:39:54.373Z,5.40
2019-03-16T13:42:20.588Z,5.00
2019-03-16T13:44:46.961Z,5.63
2019-03-16T13:47:13.148Z,4.60
2019-03-16T13:49:39.503Z,4.70
2019-03-16T13:52:06.187Z,4.80
2019-03-16T13:54:32.717Z,5.40
2019-03-16T13:56:59.064Z,5.57
2019-03-16T13:59:25.418Z,5.50
2019-03-16T14:01:51.765Z,5.20
2019-03-16T14:04:17.934Z,5.57
2019-03-16T14:06:45.323Z,5.03
2019-03-16T14:09:11.671Z,4.73
2019-03-16T14:11:37.859Z,5.10
2019-03-16T14:14:04.325Z,5.30
2019-03-16T14:16:30.431Z,4.57
2019-03-16T14:18:56.977Z,5.40
2019-03-16T14:21:23.297Z,4.60
2019-03-16T14:23:49.615Z,4.13
2019-03-16T14:26:15.885Z,3.70
2019-03-16T14:28:42.081Z,3.80
2019-03-16T14:31:08.447Z,3.30
2019-03-16T14:33:34.562Z,3.67
2019-03-16T14:36:01.192Z,3.87
2019-03-16T14:38:27.724Z,4.27
2019-03-16T14:40:54.374Z,4.70
2019-03-16T14:43:20.703Z,4.37
2019-03-16T14:45:49.009Z,4.60
2019-03-16T14:48:15.390Z,3.97
2019-03-16T14:50:41.874Z,4.60
2019-03-16T14:53:08.162Z,4.00
2019-03-16T14:55:34.399Z,3.80
2019-03-16T14:58:00.592Z,3.53
2019-03-16T15:00:37.749Z,3.37
2019-03-16T15:02:55.202Z,3.27
2019-03-16T15:05:22.601Z,3.00
2019-03-16T15:07:50.129Z,3.50
2019-03-16T15:10:17.022Z,3.70
2019-03-16T15:12:43.387Z,3.50
2019-03-16T15:15:11.549Z,3.53
2019-03-16T15:17:38.112Z,3.00
2019-03-16T15:20:07.183Z,3.10
2019-03-16T15:22:34.586Z,3.10
2019-03-16T15:25:01.180Z,3.13
2019-03-16T15:27:27.613Z,2.70
2019-03-16T15:29:53.948Z,2.90
2019-03-16T15:32:20.108Z,2.77
2019-03-16T15:34:46.341Z,2.60
2019-03-16T15:37:12.515Z,3.73
2019-03-16T15:39:38.863Z,2.77
2019-03-16T15:42:05.157Z,2.70
2019-03-16T15:44:31.428Z,2.53
2019-03-16T15:46:57.733Z,3.43
2019-03-16T15:49:24.073Z,2.57
2019-03-16T15:51:50.334Z,2.90
2019-03-16T15:54:16.702Z,3.03
2019-03-16T15:56:42.939Z,2.43
2019-03-16T15:59:09.109Z,2.60
2019-03-16T16:01:35.518Z,2.87
2019-03-16T16:04:01.897Z,2.80
2019-03-16T16:06:28.235Z,2.50
2019-03-16T16:08:54.464Z,2.90
2019-03-16T16:11:20.787Z,2.90
2019-03-16T16:13:47.101Z,3.03
2019-03-16T16:16:13.447Z,3.10
2019-03-16T16:18:39.760Z,3.07
2019-03-16T16:21:06.065Z,2.90
2019-03-16T16:23:32.327Z,3.20
2019-03-16T16:25:58.732Z,3.20
2019-03-16T16:28:24.996Z,3.00
2019-03-16T16:30:51.385Z,2.90
2019-03-16T16:33:18.880Z,3.07
2019-03-16T16:35:45.196Z,2.77
2019-03-16T16:38:11.544Z,2.50
2019-03-16T16:40:37.888Z,2.90
2019-03-16T16:43:04.246Z,2.50
2019-03-16T16:45:30.423Z,2.60
2019-03-16T16:47:56.771Z,2.80
2019-03-16T16:50:24.083Z,2.70
2019-03-16T16:52:52.137Z,2.70
2019-03-16T16:55:18.476Z,2.30
2019-03-16T16:57:44.920Z,2.60
2019-03-16T17:00:19.751Z,2.40
2019-03-16T17:02:46.118Z,2.70
2019-03-16T17:05:13.602Z,2.57
2019-03-16T17:07:39.893Z,2.33
2019-03-16T17:10:12.413Z,2.67
2019-03-16T17:12:38.770Z,2.53
2019-03-16T17:15:08.093Z,2.43
2019-03-16T17:17:35.664Z,2.60
2019-03-16T17:20:06.166Z,2.57
2019-03-16T17:22:32.554Z,2.97
2019-03-16T17:24:58.861Z,2.80
2019-03-16T17:27:26.029Z,2.50
2019-03-16T17:29:52.411Z,2.47
2019-03-16T17:32:18.799Z,2.20
2019-03-16T17:34:44.984Z,2.47
2019-03-16T17:37:11.305Z,2.40
2019-03-16T17:39:37.625Z,2.50
2019-03-16T17:42:04.156Z,3.00
2019-03-16T17:44:30.482Z,2.63
2019-03-16T17:46:56.634Z,2.40
2019-03-16T17:49:22.808Z,2.37
2019-03-16T17:51:49.077Z,2.17
2019-03-16T17:54:15.494Z,2.37
2019-03-16T17:56:41.806Z,2.70
2019-03-16T17:59:08.129Z,2.70
2019-03-16T18:01:34.398Z,2.70
2019-03-16T18:04:00.746Z,2.53
2019-03-16T18:06:28.176Z,2.50
2019-03-16T18:08:54.491Z,2.30
2019-03-16T18:11:20.706Z,2.63
2019-03-16T18:13:47.041Z,2.60
2019-03-16T18:16:13.404Z,2.70
2019-03-16T18:18:39.585Z,2.97
2019-03-16T18:21:05.845Z,3.43
2019-03-16T18:23:32.202Z,2.90
2019-03-16T18:25:58.693Z,2.53
2019-03-16T18:28:25.108Z,2.83
2019-03-16T18:30:54.330Z,2.80
2019-03-16T18:35:54.627Z,3.03
2019-03-16T18:38:21.021Z,2.90
2019-03-16T18:40:47.269Z,2.90
2019-03-16T18:43:13.487Z,3.00
2019-03-16T18:45:39.751Z,3.10
2019-03-16T18:48:06.066Z,3.30
2019-03-16T18:50:32.540Z,3.23
2019-03-16T18:52:59.035Z,2.87
2019-03-16T18:55:25.161Z,3.20
2019-03-16T18:57:51.499Z,3.00
2019-03-16T19:00:18.241Z,2.10
2019-03-16T19:02:44.685Z,3.00
2019-03-16T19:05:11.182Z,2.93
2019-03-16T19:07:37.579Z,2.77
2019-03-16T19:10:09.542Z,2.80
2019-03-16T19:12:35.978Z,2.80
2019-03-16T19:15:04.018Z,3.00
2019-03-16T19:17:30.311Z,2.73
2019-03-16T19:19:56.531Z,2.77
2019-03-16T19:22:22.889Z,2.90
2019-03-16T19:24:49.187Z,2.90
2019-03-16T19:27:18.782Z,2.80
2019-03-16T19:29:43.704Z,2.97
2019-03-16T19:32:10.052Z,2.80
2019-03-16T19:34:36.263Z,2.93
2019-03-16T19:37:02.718Z,3.23
2019-03-16T19:39:30.994Z,3.17
2019-03-16T19:41:57.288Z,2.80
2019-03-16T19:44:23.477Z,3.20
2019-03-16T19:46:49.814Z,2.90
2019-03-16T19:49:16.048Z,3.10
2019-03-16T19:51:42.288Z,3.77
2019-03-16T19:54:08.641Z,3.60
2019-03-16T19:56:34.793Z,3.63
2019-03-16T19:59:01.199Z,3.73
2019-03-16T20:01:27.486Z,3.33
2019-03-16T20:03:53.810Z,3.67
2019-03-16T20:06:25.583Z,3.90
2019-03-16T20:08:48.247Z,3.90
2019-03-16T20:11:14.426Z,3.80
2019-03-16T20:13:40.859Z,4.10
2019-03-16T20:16:07.100Z,3.90
2019-03-16T20:18:33.344Z,3.80
2019-03-16T20:20:59.577Z,3.83
2019-03-16T20:23:25.854Z,3.80
2019-03-16T20:25:52.109Z,3.90
2019-03-16T20:28:18.309Z,4.17
2019-03-16T20:30:44.544Z,3.67
2019-03-16T20:33:10.669Z,3.80
2019-03-16T20:35:36.969Z,3.67
2019-03-16T20:38:03.405Z,4.30
2019-03-16T20:40:29.530Z,4.30
2019-03-16T20:42:55.749Z,4.30
2019-03-16T20:45:22.395Z,3.67
2019-03-16T20:47:48.489Z,4.13
2019-03-16T20:50:18.731Z,4.30
2019-03-16T20:52:45.070Z,4.20
2019-03-16T20:55:11.506Z,4.40
2019-03-16T20:57:37.738Z,4.63
2019-03-16T21:00:19.592Z,4.57
2019-03-16T21:02:45.912Z,4.40
2019-03-16T21:05:12.679Z,4.77
2019-03-16T21:07:39.028Z,4.70
2019-03-16T21:10:08.473Z,4.30
2019-03-16T21:12:34.674Z,4.50
2019-03-16T21:15:01.148Z,4.80
2019-03-16T21:17:27.450Z,4.60
2019-03-16T21:19:53.659Z,4.30
2019-03-16T21:22:20.007Z,5.00
2019-03-16T21:24:46.213Z,4.50
2019-03-16T21:27:12.524Z,4.73
2019-03-16T21:29:39.940Z,4.43
2019-03-16T21:32:06.395Z,4.53
2019-03-16T21:34:33.489Z,4.57
2019-03-16T21:36:59.878Z,4.80
2019-03-16T21:39:26.055Z,4.60
2019-03-16T21:41:52.390Z,4.60
2019-03-16T21:44:18.844Z,4.37
2019-03-16T21:46:45.176Z,4.33
2019-03-16T21:49:11.411Z,4.33
2019-03-16T21:51:37.767Z,4.13
2019-03-16T21:54:04.093Z,4.37
2019-03-16T21:56:30.387Z,4.50
2019-03-16T21:58:56.602Z,4.27
2019-03-16T22:01:22.826Z,3.93
2019-03-16T22:03:48.933Z,4.00
2019-03-16T22:06:15.156Z,4.40
2019-03-16T22:08:41.850Z,4.63
2019-03-16T22:11:08.152Z,4.57
2019-03-16T22:13:34.273Z,4.40
2019-03-16T22:16:00.516Z,3.83
2019-03-16T22:18:26.737Z,4.20
2019-03-16T22:20:52.916Z,3.73
2019-03-16T22:23:19.065Z,3.77
2019-03-16T22:25:45.385Z,4.20
2019-03-16T22:28:11.596Z,4.00
2019-03-16T22:30:37.912Z,4.07
2019-03-16T22:33:04.180Z,3.70
2019-03-16T22:35:30.424Z,4.00
2019-03-16T22:37:57.851Z,4.30
2019-03-16T22:40:23.921Z,4.30
2019-03-16T22:42:50.171Z,4.03
2019-03-16T22:45:16.466Z,4.00
2019-03-16T22:47:42.730Z,4.50
2019-03-16T22:50:13.488Z,4.10
2019-03-16T22:52:39.929Z,3.73
2019-03-16T22:55:06.216Z,4.00
2019-03-16T22:57:32.923Z,4.00
2019-03-16T22:59:59.091Z,4.03
2019-03-16T23:02:25.441Z,4.27
2019-03-16T23:04:51.515Z,3.90
2019-03-16T23:07:17.814Z,4.00
2019-03-16T23:09:43.972Z,3.80
2019-03-16T23:12:10.088Z,3.90
2019-03-16T23:14:36.319Z,3.23
2019-03-16T23:17:02.654Z,3.20
2019-03-16T23:19:28.858Z,4.30
2019-03-16T23:21:55.002Z,3.93
2019-03-16T23:24:21.476Z,3.97
2019-03-16T23:26:47.799Z,4.03
2019-03-16T23:29:14.084Z,3.70
2019-03-16T23:31:40.565Z,3.60
2019-03-16T23:34:18.738Z,3.60
2019-03-16T23:36:35.479Z,3.37
2019-03-16T23:39:03.862Z,3.70
2019-03-16T23:41:30.345Z,3.67
2019-03-16T23:43:56.496Z,3.57
2019-03-16T23:46:22.797Z,3.97
2019-03-16T23:48:48.940Z,3.47
2019-03-16T23:51:15.159Z,3.53
2019-03-16T23:53:41.474Z,3.47
2019-03-16T23:56:07.673Z,3.90
2019-03-16T23:58:33.990Z,3.67
